sensor_id;sensor_type;location;lat;lon;timestamp;P1;durP1;ratioP1;P2;durP2;ratioP2
14396;SDS011;50653;47.810;13.022;2023-04-02T00:09:03;0.80;;;0.80;;
14396;SDS011;50653;47.810;13.022;2023-04-02T00:11:47;0.80;;;0.80;;
14396;SDS011;50653;47.810;13.022;2023-04-02T00:14:15;0.90;;;0.60;;
14396;SDS011;50653;47.810;13.022;2023-04-02T00:16:56;1.00;;;0.90;;
14396;SDS011;50653;47.810;13.022;2023-04-02T00:19:30;1.20;;;0.80;;
14396;SDS011;50653;47.810;13.022;2023-04-02T00:22:06;1.00;;;0.63;;
14396;SDS011;50653;47.810;13.022;2023-04-02T00:24:38;1.00;;;0.90;;
14396;SDS011;50653;47.810;13.022;2023-04-02T00:27:05;1.10;;;1.00;;
14396;SDS011;50653;47.810;13.022;2023-04-02T00:29:47;3.73;;;1.03;;
14396;SDS011;50653;47.810;13.022;2023-04-02T00:32:19;1.10;;;0.80;;
14396;SDS011;50653;47.810;13.022;2023-04-02T00:34:50;0.80;;;0.60;;
14396;SDS011;50653;47.810;13.022;2023-04-02T00:37:18;0.85;;;0.80;;
14396;SDS011;50653;47.810;13.022;2023-04-02T00:39:49;1.20;;;0.87;;
14396;SDS011;50653;47.810;13.022;2023-04-02T00:42:17;3.37;;;0.97;;
14396;SDS011;50653;47.810;13.022;2023-04-02T00:44:43;1.27;;;1.10;;
14396;SDS011;50653;47.810;13.022;2023-04-02T00:47:15;1.00;;;0.90;;
14396;SDS011;50653;47.810;13.022;2023-04-02T00:49:45;0.90;;;0.77;;
14396;SDS011;50653;47.810;13.022;2023-04-02T00:52:13;1.30;;;1.20;;
14396;SDS011;50653;47.810;13.022;2023-04-02T00:54:44;1.73;;;0.90;;
14396;SDS011;50653;47.810;13.022;2023-04-02T00:57:25;1.00;;;0.90;;
14396;SDS011;50653;47.810;13.022;2023-04-02T01:02:40;1.33;;;0.80;;
14396;SDS011;50653;47.810;13.022;2023-04-02T01:10:28;1.00;;;0.73;;
14396;SDS011;50653;47.810;13.022;2023-04-02T01:15:42;1.80;;;1.00;;
14396;SDS011;50653;47.810;13.022;2023-04-02T01:18:25;1.10;;;1.00;;
14396;SDS011;50653;47.810;13.022;2023-04-02T01:31:43;1.43;;;1.33;;
14396;SDS011;50653;47.810;13.022;2023-04-02T01:34:11;1.90;;;1.80;;
14396;SDS011;50653;47.810;13.022;2023-04-02T01:36:42;1.23;;;1.13;;
14396;SDS011;50653;47.810;13.022;2023-04-02T01:39:53;1.67;;;1.57;;
14396;SDS011;50653;47.810;13.022;2023-04-02T01:45:21;1.50;;;1.40;;
14396;SDS011;50653;47.810;13.022;2023-04-02T01:47:48;1.57;;;1.47;;
14396;SDS011;50653;47.810;13.022;2023-04-02T01:52:45;0.80;;;0.80;;
14396;SDS011;50653;47.810;13.022;2023-04-02T01:55:14;2.70;;;0.97;;
14396;SDS011;50653;47.810;13.022;2023-04-02T01:57:45;1.10;;;1.00;;
14396;SDS011;50653;47.810;13.022;2023-04-02T02:00:14;1.00;;;0.80;;
14396;SDS011;50653;47.810;13.022;2023-04-02T02:02:45;1.00;;;0.63;;
14396;SDS011;50653;47.810;13.022;2023-04-02T02:05:20;1.17;;;0.70;;
14396;SDS011;50653;47.810;13.022;2023-04-02T02:07:49;2.60;;;1.23;;
14396;SDS011;50653;47.810;13.022;2023-04-02T02:10:20;1.00;;;0.57;;
14396;SDS011;50653;47.810;13.022;2023-04-02T02:12:50;2.30;;;0.60;;
14396;SDS011;50653;47.810;13.022;2023-04-02T02:15:17;1.03;;;0.70;;
14396;SDS011;50653;47.810;13.022;2023-04-02T02:17:45;0.90;;;0.63;;
14396;SDS011;50653;47.810;13.022;2023-04-02T02:20:12;0.90;;;0.80;;
14396;SDS011;50653;47.810;13.022;2023-04-02T02:22:42;0.80;;;0.60;;
14396;SDS011;50653;47.810;13.022;2023-04-02T02:25:10;0.80;;;0.60;;
14396;SDS011;50653;47.810;13.022;2023-04-02T02:35:58;1.60;;;1.33;;
14396;SDS011;50653;47.810;13.022;2023-04-02T02:38:40;1.80;;;1.10;;
14396;SDS011;50653;47.810;13.022;2023-04-02T02:44:17;1.00;;;0.90;;
14396;SDS011;50653;47.810;13.022;2023-04-02T02:46:53;1.40;;;1.00;;
14396;SDS011;50653;47.810;13.022;2023-04-02T02:49:42;1.00;;;0.90;;
14396;SDS011;50653;47.810;13.022;2023-04-02T02:52:13;0.90;;;0.60;;
14396;SDS011;50653;47.810;13.022;2023-04-02T02:54:49;1.10;;;0.87;;
14396;SDS011;50653;47.810;13.022;2023-04-02T02:57:21;1.53;;;0.70;;
14396;SDS011;50653;47.810;13.022;2023-04-02T02:59:50;0.90;;;0.80;;
14396;SDS011;50653;47.810;13.022;2023-04-02T03:02:18;0.80;;;0.60;;
14396;SDS011;50653;47.810;13.022;2023-04-02T03:04:47;1.13;;;1.03;;
14396;SDS011;50653;47.810;13.022;2023-04-02T03:07:18;0.63;;;0.53;;
14396;SDS011;50653;47.810;13.022;2023-04-02T03:12:46;5.53;;;0.67;;
14396;SDS011;50653;47.810;13.022;2023-04-02T03:18:39;0.90;;;0.80;;
14396;SDS011;50653;47.810;13.022;2023-04-02T03:21:14;4.50;;;0.70;;
14396;SDS011;50653;47.810;13.022;2023-04-02T03:23:42;1.30;;;0.93;;
14396;SDS011;50653;47.810;13.022;2023-04-02T03:26:31;0.90;;;0.70;;
14396;SDS011;50653;47.810;13.022;2023-04-02T03:29:12;1.00;;;0.80;;
14396;SDS011;50653;47.810;13.022;2023-04-02T03:32:05;0.83;;;0.60;;
14396;SDS011;50653;47.810;13.022;2023-04-02T03:34:58;1.53;;;0.60;;
14396;SDS011;50653;47.810;13.022;2023-04-02T03:37:35;4.47;;;0.80;;
14396;SDS011;50653;47.810;13.022;2023-04-02T03:40:14;0.70;;;0.50;;
14396;SDS011;50653;47.810;13.022;2023-04-02T03:42:47;2.80;;;0.93;;
14396;SDS011;50653;47.810;13.022;2023-04-02T03:48:09;0.90;;;0.60;;
14396;SDS011;50653;47.810;13.022;2023-04-02T03:53:31;1.45;;;0.60;;
14396;SDS011;50653;47.810;13.022;2023-04-02T03:55:58;1.10;;;1.00;;
14396;SDS011;50653;47.810;13.022;2023-04-02T03:58:39;1.37;;;0.80;;
14396;SDS011;50653;47.810;13.022;2023-04-02T04:01:19;8.97;;;6.60;;
14396;SDS011;50653;47.810;13.022;2023-04-02T04:03:56;2.90;;;2.43;;
14396;SDS011;50653;47.810;13.022;2023-04-02T04:06:34;1.30;;;1.20;;
14396;SDS011;50653;47.810;13.022;2023-04-02T04:11:36;2.13;;;0.70;;
14396;SDS011;50653;47.810;13.022;2023-04-02T04:14:15;3.03;;;1.50;;
14396;SDS011;50653;47.810;13.022;2023-04-02T04:16:43;3.17;;;1.90;;
14396;SDS011;50653;47.810;13.022;2023-04-02T04:19:32;2.90;;;0.60;;
14396;SDS011;50653;47.810;13.022;2023-04-02T04:22:09;2.00;;;0.70;;
14396;SDS011;50653;47.810;13.022;2023-04-02T04:24:45;2.40;;;0.70;;
14396;SDS011;50653;47.810;13.022;2023-04-02T04:27:17;2.00;;;0.73;;
14396;SDS011;50653;47.810;13.022;2023-04-02T04:30:01;2.13;;;1.93;;
14396;SDS011;50653;47.810;13.022;2023-04-02T04:32:54;5.47;;;2.70;;
14396;SDS011;50653;47.810;13.022;2023-04-02T04:35:31;2.10;;;0.93;;
14396;SDS011;50653;47.810;13.022;2023-04-02T04:38:05;1.10;;;0.80;;
14396;SDS011;50653;47.810;13.022;2023-04-02T04:41:03;1.90;;;0.80;;
14396;SDS011;50653;47.810;13.022;2023-04-02T04:46:37;2.20;;;1.10;;
14396;SDS011;50653;47.810;13.022;2023-04-02T04:49:13;1.40;;;1.30;;
14396;SDS011;50653;47.810;13.022;2023-04-02T04:51:45;0.80;;;0.77;;
14396;SDS011;50653;47.810;13.022;2023-04-02T04:54:16;1.57;;;0.70;;
14396;SDS011;50653;47.810;13.022;2023-04-02T04:56:47;1.48;;;0.93;;
14396;SDS011;50653;47.810;13.022;2023-04-02T04:59:22;3.53;;;1.20;;
14396;SDS011;50653;47.810;13.022;2023-04-02T05:04:51;1.20;;;1.10;;
14396;SDS011;50653;47.810;13.022;2023-04-02T05:07:20;1.20;;;1.10;;
14396;SDS011;50653;47.810;13.022;2023-04-02T05:09:54;1.30;;;1.20;;
14396;SDS011;50653;47.810;13.022;2023-04-02T05:12:33;1.50;;;1.07;;
14396;SDS011;50653;47.810;13.022;2023-04-02T05:15:23;2.42;;;1.60;;
14396;SDS011;50653;47.810;13.022;2023-04-02T05:20:49;2.20;;;1.58;;
14396;SDS011;50653;47.810;13.022;2023-04-02T05:23:25;1.60;;;1.50;;
14396;SDS011;50653;47.810;13.022;2023-04-02T05:26:00;2.53;;;1.33;;
14396;SDS011;50653;47.810;13.022;2023-04-02T05:28:56;1.90;;;1.50;;
14396;SDS011;50653;47.810;13.022;2023-04-02T05:31:28;3.87;;;1.50;;
14396;SDS011;50653;47.810;13.022;2023-04-02T05:34:05;1.60;;;1.50;;
14396;SDS011;50653;47.810;13.022;2023-04-02T05:36:31;2.30;;;1.57;;
14396;SDS011;50653;47.810;13.022;2023-04-02T05:38:59;2.00;;;1.80;;
14396;SDS011;50653;47.810;13.022;2023-04-02T05:41:48;3.57;;;1.80;;
14396;SDS011;50653;47.810;13.022;2023-04-02T05:44:59;1.45;;;1.30;;
14396;SDS011;50653;47.810;13.022;2023-04-02T05:47:41;1.90;;;1.70;;
14396;SDS011;50653;47.810;13.022;2023-04-02T05:50:25;2.50;;;1.65;;
14396;SDS011;50653;47.810;13.022;2023-04-02T05:53:01;2.60;;;1.70;;
14396;SDS011;50653;47.810;13.022;2023-04-02T05:55:55;2.17;;;1.98;;
14396;SDS011;50653;47.810;13.022;2023-04-02T05:58:27;1.93;;;1.30;;
14396;SDS011;50653;47.810;13.022;2023-04-02T06:04:29;2.00;;;1.00;;
14396;SDS011;50653;47.810;13.022;2023-04-02T06:07:14;3.30;;;1.00;;
14396;SDS011;50653;47.810;13.022;2023-04-02T06:09:49;1.30;;;0.90;;
14396;SDS011;50653;47.810;13.022;2023-04-02T06:15:16;1.63;;;1.47;;
14396;SDS011;50653;47.810;13.022;2023-04-02T06:17:52;2.70;;;1.60;;
14396;SDS011;50653;47.810;13.022;2023-04-02T06:20:24;1.60;;;1.50;;
14396;SDS011;50653;47.810;13.022;2023-04-02T06:22:52;1.60;;;1.33;;
14396;SDS011;50653;47.810;13.022;2023-04-02T06:25:29;1.30;;;1.20;;
14396;SDS011;50653;47.810;13.022;2023-04-02T06:28:00;2.57;;;1.40;;
14396;SDS011;50653;47.810;13.022;2023-04-02T06:30:35;2.30;;;1.10;;
14396;SDS011;50653;47.810;13.022;2023-04-02T06:33:04;1.70;;;1.00;;
14396;SDS011;50653;47.810;13.022;2023-04-02T06:35:33;1.50;;;1.30;;
14396;SDS011;50653;47.810;13.022;2023-04-02T06:38:23;2.20;;;1.53;;
14396;SDS011;50653;47.810;13.022;2023-04-02T06:40:56;2.40;;;1.98;;
14396;SDS011;50653;47.810;13.022;2023-04-02T06:43:40;2.70;;;2.20;;
14396;SDS011;50653;47.810;13.022;2023-04-02T06:46:22;3.10;;;2.20;;
14396;SDS011;50653;47.810;13.022;2023-04-02T06:49:13;3.60;;;2.25;;
14396;SDS011;50653;47.810;13.022;2023-04-02T06:52:01;2.55;;;2.35;;
14396;SDS011;50653;47.810;13.022;2023-04-02T06:54:30;2.50;;;2.30;;
14396;SDS011;50653;47.810;13.022;2023-04-02T06:57:01;2.10;;;1.90;;
14396;SDS011;50653;47.810;13.022;2023-04-02T06:59:35;2.10;;;1.90;;
14396;SDS011;50653;47.810;13.022;2023-04-02T07:02:04;2.20;;;2.00;;
14396;SDS011;50653;47.810;13.022;2023-04-02T07:04:51;11.98;;;10.30;;
14396;SDS011;50653;47.810;13.022;2023-04-02T07:07:22;14.50;;;13.10;;
14396;SDS011;50653;47.810;13.022;2023-04-02T07:09:48;4.55;;;4.15;;
14396;SDS011;50653;47.810;13.022;2023-04-02T07:12:14;2.42;;;2.30;;
14396;SDS011;50653;47.810;13.022;2023-04-02T07:15:27;5.60;;;5.10;;
14396;SDS011;50653;47.810;13.022;2023-04-02T07:36:39;2.60;;;1.07;;
14396;SDS011;50653;47.810;13.022;2023-04-02T07:39:26;2.00;;;1.42;;
14396;SDS011;50653;47.810;13.022;2023-04-02T07:44:49;2.50;;;2.30;;
14396;SDS011;50653;47.810;13.022;2023-04-02T07:47:28;2.30;;;2.10;;
14396;SDS011;50653;47.810;13.022;2023-04-02T07:53:42;1.83;;;1.38;;
14396;SDS011;50653;47.810;13.022;2023-04-02T07:56:14;2.50;;;1.40;;
14396;SDS011;50653;47.810;13.022;2023-04-02T07:58:45;1.23;;;0.70;;
14396;SDS011;50653;47.810;13.022;2023-04-02T08:04:47;2.08;;;0.90;;
14396;SDS011;50653;47.810;13.022;2023-04-02T08:07:15;1.15;;;0.70;;
14396;SDS011;50653;47.810;13.022;2023-04-02T08:09:42;3.25;;;2.22;;
14396;SDS011;50653;47.810;13.022;2023-04-02T08:12:11;1.10;;;0.95;;
14396;SDS011;50653;47.810;13.022;2023-04-02T08:14:38;2.50;;;0.90;;
14396;SDS011;50653;47.810;13.022;2023-04-02T08:17:04;1.97;;;0.73;;
14396;SDS011;50653;47.810;13.022;2023-04-02T08:19:30;2.07;;;0.60;;
14396;SDS011;50653;47.810;13.022;2023-04-02T08:21:57;1.30;;;1.10;;
14396;SDS011;50653;47.810;13.022;2023-04-02T08:24:23;0.70;;;0.50;;
14396;SDS011;50653;47.810;13.022;2023-04-02T08:26:49;1.40;;;0.90;;
14396;SDS011;50653;47.810;13.022;2023-04-02T08:29:17;1.65;;;1.10;;
14396;SDS011;50653;47.810;13.022;2023-04-02T08:31:43;0.90;;;0.80;;
14396;SDS011;50653;47.810;13.022;2023-04-02T08:34:10;2.80;;;1.48;;
14396;SDS011;50653;47.810;13.022;2023-04-02T08:36:36;2.90;;;0.90;;
14396;SDS011;50653;47.810;13.022;2023-04-02T08:39:04;4.00;;;3.20;;
14396;SDS011;50653;47.810;13.022;2023-04-02T08:41:35;1.15;;;0.70;;
14396;SDS011;50653;47.810;13.022;2023-04-02T08:47:00;1.30;;;0.70;;
14396;SDS011;50653;47.810;13.022;2023-04-02T08:49:30;1.00;;;0.70;;
14396;SDS011;50653;47.810;13.022;2023-04-02T08:52:00;1.10;;;0.77;;
14396;SDS011;50653;47.810;13.022;2023-04-02T08:54:30;2.47;;;0.90;;
14396;SDS011;50653;47.810;13.022;2023-04-02T09:00:34;1.80;;;0.80;;
14396;SDS011;50653;47.810;13.022;2023-04-02T09:03:11;1.50;;;1.08;;
14396;SDS011;50653;47.810;13.022;2023-04-02T09:06:04;1.58;;;1.23;;
14396;SDS011;50653;47.810;13.022;2023-04-02T09:08:34;2.30;;;2.10;;
14396;SDS011;50653;47.810;13.022;2023-04-02T09:11:08;2.70;;;2.00;;
14396;SDS011;50653;47.810;13.022;2023-04-02T09:13:45;1.10;;;0.93;;
14396;SDS011;50653;47.810;13.022;2023-04-02T09:16:14;0.70;;;0.60;;
14396;SDS011;50653;47.810;13.022;2023-04-02T09:18:42;1.50;;;1.00;;
14396;SDS011;50653;47.810;13.022;2023-04-02T09:23:58;2.50;;;1.00;;
14396;SDS011;50653;47.810;13.022;2023-04-02T09:26:28;1.50;;;0.90;;
14396;SDS011;50653;47.810;13.022;2023-04-02T09:31:43;1.30;;;0.88;;
14396;SDS011;50653;47.810;13.022;2023-04-02T09:34:33;1.30;;;1.20;;
14396;SDS011;50653;47.810;13.022;2023-04-02T09:37:07;1.10;;;0.90;;
14396;SDS011;50653;47.810;13.022;2023-04-02T09:39:38;0.90;;;0.63;;
14396;SDS011;50653;47.810;13.022;2023-04-02T09:47:48;1.40;;;1.00;;
14396;SDS011;50653;47.810;13.022;2023-04-02T09:50:31;1.80;;;0.80;;
14396;SDS011;50653;47.810;13.022;2023-04-02T09:52:59;1.13;;;0.93;;
14396;SDS011;50653;47.810;13.022;2023-04-02T09:56:16;1.00;;;0.90;;
14396;SDS011;50653;47.810;13.022;2023-04-02T09:58:41;2.88;;;1.00;;
14396;SDS011;50653;47.810;13.022;2023-04-02T10:01:27;1.50;;;0.70;;
14396;SDS011;50653;47.810;13.022;2023-04-02T10:03:55;5.47;;;4.07;;
14396;SDS011;50653;47.810;13.022;2023-04-02T10:06:23;2.58;;;1.00;;
14396;SDS011;50653;47.810;13.022;2023-04-02T10:08:51;1.03;;;0.60;;
14396;SDS011;50653;47.810;13.022;2023-04-02T10:11:21;1.00;;;0.70;;
14396;SDS011;50653;47.810;13.022;2023-04-02T10:13:59;1.17;;;0.70;;
14396;SDS011;50653;47.810;13.022;2023-04-02T10:16:34;1.10;;;0.80;;
14396;SDS011;50653;47.810;13.022;2023-04-02T10:21:49;4.20;;;1.15;;
14396;SDS011;50653;47.810;13.022;2023-04-02T10:24:16;0.93;;;0.60;;
14396;SDS011;50653;47.810;13.022;2023-04-02T10:35:14;1.27;;;0.70;;
14396;SDS011;50653;47.810;13.022;2023-04-02T10:38:09;1.20;;;0.70;;
14396;SDS011;50653;47.810;13.022;2023-04-02T10:46:18;0.90;;;0.70;;
14396;SDS011;50653;47.810;13.022;2023-04-02T11:02:47;1.00;;;0.80;;
14396;SDS011;50653;47.810;13.022;2023-04-02T11:08:22;1.17;;;1.00;;
14396;SDS011;50653;47.810;13.022;2023-04-02T11:10:55;1.83;;;0.90;;
14396;SDS011;50653;47.810;13.022;2023-04-02T11:13:46;2.60;;;1.50;;
14396;SDS011;50653;47.810;13.022;2023-04-02T11:16:19;1.97;;;1.20;;
14396;SDS011;50653;47.810;13.022;2023-04-02T11:24:03;1.83;;;0.67;;
14396;SDS011;50653;47.810;13.022;2023-04-02T11:26:31;1.27;;;0.90;;
14396;SDS011;50653;47.810;13.022;2023-04-02T11:29:08;0.70;;;0.50;;
14396;SDS011;50653;47.810;13.022;2023-04-02T11:31:36;2.10;;;1.90;;
14396;SDS011;50653;47.810;13.022;2023-04-02T11:34:02;1.90;;;1.40;;
14396;SDS011;50653;47.810;13.022;2023-04-02T11:39:43;2.17;;;1.40;;
14396;SDS011;50653;47.810;13.022;2023-04-02T11:53:04;0.82;;;0.65;;
14396;SDS011;50653;47.810;13.022;2023-04-02T12:04:00;2.20;;;1.00;;
14396;SDS011;50653;47.810;13.022;2023-04-02T12:06:53;1.10;;;1.00;;
14396;SDS011;50653;47.810;13.022;2023-04-02T12:09:27;2.60;;;0.90;;
14396;SDS011;50653;47.810;13.022;2023-04-02T12:11:59;1.53;;;1.00;;
14396;SDS011;50653;47.810;13.022;2023-04-02T12:17:24;1.80;;;1.67;;
14396;SDS011;50653;47.810;13.022;2023-04-02T12:19:58;1.27;;;1.17;;
14396;SDS011;50653;47.810;13.022;2023-04-02T12:22:27;1.70;;;1.43;;
14396;SDS011;50653;47.810;13.022;2023-04-02T12:24:57;1.47;;;0.80;;
14396;SDS011;50653;47.810;13.022;2023-04-02T12:27:28;2.33;;;1.40;;
14396;SDS011;50653;47.810;13.022;2023-04-02T12:29:57;1.50;;;1.40;;
14396;SDS011;50653;47.810;13.022;2023-04-02T12:32:36;1.23;;;1.10;;
14396;SDS011;50653;47.810;13.022;2023-04-02T12:35:02;1.50;;;1.40;;
14396;SDS011;50653;47.810;13.022;2023-04-02T12:37:30;2.10;;;1.30;;
14396;SDS011;50653;47.810;13.022;2023-04-02T12:40:00;1.27;;;1.17;;
14396;SDS011;50653;47.810;13.022;2023-04-02T12:42:36;2.80;;;1.40;;
14396;SDS011;50653;47.810;13.022;2023-04-02T12:45:02;1.60;;;0.93;;
14396;SDS011;50653;47.810;13.022;2023-04-02T12:47:30;2.10;;;1.70;;
14396;SDS011;50653;47.810;13.022;2023-04-02T12:49:58;0.83;;;0.80;;
14396;SDS011;50653;47.810;13.022;2023-04-02T12:52:26;1.30;;;1.20;;
14396;SDS011;50653;47.810;13.022;2023-04-02T12:54:54;1.57;;;1.47;;
14396;SDS011;50653;47.810;13.022;2023-04-02T13:00:00;2.60;;;1.63;;
14396;SDS011;50653;47.810;13.022;2023-04-02T13:02:47;6.00;;;1.53;;
14396;SDS011;50653;47.810;13.022;2023-04-02T13:05:34;1.67;;;1.10;;
14396;SDS011;50653;47.810;13.022;2023-04-02T13:08:05;2.43;;;2.23;;
14396;SDS011;50653;47.810;13.022;2023-04-02T13:10:39;2.73;;;2.50;;
14396;SDS011;50653;47.810;13.022;2023-04-02T13:13:05;1.33;;;1.23;;
14396;SDS011;50653;47.810;13.022;2023-04-02T13:15:32;3.70;;;1.58;;
14396;SDS011;50653;47.810;13.022;2023-04-02T13:20:33;3.00;;;1.80;;
14396;SDS011;50653;47.810;13.022;2023-04-02T13:25:48;1.83;;;1.73;;
14396;SDS011;50653;47.810;13.022;2023-04-02T13:28:14;1.60;;;1.33;;
14396;SDS011;50653;47.810;13.022;2023-04-02T13:30:40;1.53;;;1.40;;
14396;SDS011;50653;47.810;13.022;2023-04-02T13:33:06;1.53;;;1.43;;
14396;SDS011;50653;47.810;13.022;2023-04-02T13:35:31;1.77;;;1.67;;
14396;SDS011;50653;47.810;13.022;2023-04-02T13:37:57;2.40;;;2.30;;
14396;SDS011;50653;47.810;13.022;2023-04-02T13:40:23;3.00;;;2.10;;
14396;SDS011;50653;47.810;13.022;2023-04-02T13:42:49;1.92;;;1.83;;
14396;SDS011;50653;47.810;13.022;2023-04-02T13:45:17;1.60;;;1.30;;
14396;SDS011;50653;47.810;13.022;2023-04-02T13:47:52;3.30;;;1.40;;
14396;SDS011;50653;47.810;13.022;2023-04-02T13:50:20;2.40;;;1.63;;
14396;SDS011;50653;47.810;13.022;2023-04-02T13:52:47;1.25;;;1.15;;
14396;SDS011;50653;47.810;13.022;2023-04-02T13:55:14;1.60;;;1.50;;
14396;SDS011;50653;47.810;13.022;2023-04-02T13:57:42;1.70;;;1.60;;
14396;SDS011;50653;47.810;13.022;2023-04-02T14:00:09;4.13;;;2.05;;
14396;SDS011;50653;47.810;13.022;2023-04-02T14:02:39;2.20;;;2.10;;
14396;SDS011;50653;47.810;13.022;2023-04-02T14:13:36;1.43;;;1.33;;
14396;SDS011;50653;47.810;13.022;2023-04-02T14:16:19;1.50;;;1.30;;
14396;SDS011;50653;47.810;13.022;2023-04-02T14:27:34;4.00;;;3.20;;
14396;SDS011;50653;47.810;13.022;2023-04-02T14:30:21;1.50;;;1.40;;
14396;SDS011;50653;47.810;13.022;2023-04-02T14:33:06;1.83;;;1.70;;
14396;SDS011;50653;47.810;13.022;2023-04-02T14:35:48;1.80;;;1.70;;
14396;SDS011;50653;47.810;13.022;2023-04-02T14:38:29;1.60;;;1.50;;
14396;SDS011;50653;47.810;13.022;2023-04-02T14:41:12;1.60;;;0.97;;
14396;SDS011;50653;47.810;13.022;2023-04-02T14:44:08;2.50;;;1.00;;
14396;SDS011;50653;47.810;13.022;2023-04-02T14:46:36;1.67;;;1.13;;
14396;SDS011;50653;47.810;13.022;2023-04-02T17:28:08;2.22;;;1.90;;
14396;SDS011;50653;47.810;13.022;2023-04-02T17:30:48;1.40;;;1.30;;
14396;SDS011;50653;47.810;13.022;2023-04-02T17:33:18;0.93;;;0.82;;
14396;SDS011;50653;47.810;13.022;2023-04-02T17:38:40;1.10;;;0.90;;
14396;SDS011;50653;47.810;13.022;2023-04-02T17:47:08;0.90;;;0.73;;
14396;SDS011;50653;47.810;13.022;2023-04-02T17:52:47;1.27;;;0.70;;
14396;SDS011;50653;47.810;13.022;2023-04-02T17:58:18;1.83;;;0.90;;
14396;SDS011;50653;47.810;13.022;2023-04-02T18:06:21;1.87;;;1.17;;
14396;SDS011;50653;47.810;13.022;2023-04-02T18:09:04;1.00;;;0.90;;
14396;SDS011;50653;47.810;13.022;2023-04-02T18:17:15;1.13;;;1.03;;
14396;SDS011;50653;47.810;13.022;2023-04-02T18:20:04;0.80;;;0.60;;
14396;SDS011;50653;47.810;13.022;2023-04-02T18:23:10;1.30;;;1.20;;
14396;SDS011;50653;47.810;13.022;2023-04-02T18:28:40;1.73;;;1.27;;
14396;SDS011;50653;47.810;13.022;2023-04-02T18:31:37;2.50;;;1.97;;
14396;SDS011;50653;47.810;13.022;2023-04-02T18:48:58;0.90;;;0.80;;
14396;SDS011;50653;47.810;13.022;2023-04-02T18:51:35;0.90;;;0.80;;
14396;SDS011;50653;47.810;13.022;2023-04-02T18:54:22;1.30;;;1.00;;
14396;SDS011;50653;47.810;13.022;2023-04-02T18:56:59;2.57;;;1.00;;
14396;SDS011;50653;47.810;13.022;2023-04-02T18:59:31;1.10;;;1.00;;
14396;SDS011;50653;47.810;13.022;2023-04-02T19:05:16;1.40;;;1.23;;
14396;SDS011;50653;47.810;13.022;2023-04-02T19:07:48;1.50;;;1.40;;
14396;SDS011;50653;47.810;13.022;2023-04-02T19:10:32;0.90;;;0.80;;
14396;SDS011;50653;47.810;13.022;2023-04-02T19:13:05;1.23;;;0.93;;
14396;SDS011;50653;47.810;13.022;2023-04-02T19:22:07;1.37;;;1.20;;
14396;SDS011;50653;47.810;13.022;2023-04-02T19:49:07;3.33;;;3.13;;
14396;SDS011;50653;47.810;13.022;2023-04-02T19:52:18;2.40;;;2.23;;
14396;SDS011;50653;47.810;13.022;2023-04-02T19:55:22;3.47;;;3.27;;
14396;SDS011;50653;47.810;13.022;2023-04-02T19:58:04;2.80;;;2.70;;
14396;SDS011;50653;47.810;13.022;2023-04-02T20:01:03;3.40;;;3.20;;
14396;SDS011;50653;47.810;13.022;2023-04-02T20:03:56;3.50;;;3.30;;
14396;SDS011;50653;47.810;13.022;2023-04-02T20:13:37;3.93;;;3.73;;
14396;SDS011;50653;47.810;13.022;2023-04-02T20:16:21;4.63;;;4.03;;
14396;SDS011;50653;47.810;13.022;2023-04-02T20:18:56;4.03;;;3.70;;
14396;SDS011;50653;47.810;13.022;2023-04-02T20:21:36;3.83;;;3.63;;
14396;SDS011;50653;47.810;13.022;2023-04-02T20:24:05;4.37;;;4.07;;
14396;SDS011;50653;47.810;13.022;2023-04-02T20:26:33;4.30;;;4.10;;
14396;SDS011;50653;47.810;13.022;2023-04-02T20:29:17;5.10;;;4.80;;
14396;SDS011;50653;47.810;13.022;2023-04-02T20:31:59;5.00;;;4.73;;
14396;SDS011;50653;47.810;13.022;2023-04-02T20:34:38;5.80;;;5.30;;
14396;SDS011;50653;47.810;13.022;2023-04-02T20:37:10;5.37;;;5.07;;
14396;SDS011;50653;47.810;13.022;2023-04-02T20:39:50;5.07;;;4.67;;
14396;SDS011;50653;47.810;13.022;2023-04-02T20:42:16;5.53;;;5.30;;
14396;SDS011;50653;47.810;13.022;2023-04-02T20:44:51;5.67;;;5.37;;
14396;SDS011;50653;47.810;13.022;2023-04-02T20:47:19;6.47;;;6.07;;
14396;SDS011;50653;47.810;13.022;2023-04-02T20:49:46;5.87;;;5.47;;
14396;SDS011;50653;47.810;13.022;2023-04-02T20:52:15;7.80;;;7.20;;
14396;SDS011;50653;47.810;13.022;2023-04-02T20:54:54;6.57;;;6.17;;
14396;SDS011;50653;47.810;13.022;2023-04-02T20:57:22;11.03;;;6.50;;
14396;SDS011;50653;47.810;13.022;2023-04-02T20:59:50;7.43;;;6.93;;
14396;SDS011;50653;47.810;13.022;2023-04-02T21:02:20;7.53;;;6.93;;
14396;SDS011;50653;47.810;13.022;2023-04-02T21:04:55;6.80;;;6.27;;
14396;SDS011;50653;47.810;13.022;2023-04-02T21:07:21;7.53;;;7.10;;
14396;SDS011;50653;47.810;13.022;2023-04-02T21:09:47;7.10;;;6.70;;
14396;SDS011;50653;47.810;13.022;2023-04-02T21:12:16;7.30;;;6.70;;
14396;SDS011;50653;47.810;13.022;2023-04-02T21:14:51;7.17;;;6.67;;
14396;SDS011;50653;47.810;13.022;2023-04-02T21:17:21;7.70;;;7.00;;
14396;SDS011;50653;47.810;13.022;2023-04-02T21:19:47;8.20;;;7.50;;
14396;SDS011;50653;47.810;13.022;2023-04-02T21:22:15;7.43;;;6.80;;
14396;SDS011;50653;47.810;13.022;2023-04-02T21:24:46;8.93;;;8.23;;
14396;SDS011;50653;47.810;13.022;2023-04-02T21:27:22;6.50;;;6.10;;
14396;SDS011;50653;47.810;13.022;2023-04-02T21:29:56;7.10;;;6.60;;
14396;SDS011;50653;47.810;13.022;2023-04-02T21:32:24;7.17;;;6.77;;
14396;SDS011;50653;47.810;13.022;2023-04-02T21:34:56;8.03;;;7.43;;
14396;SDS011;50653;47.810;13.022;2023-04-02T21:37:22;8.30;;;7.63;;
14396;SDS011;50653;47.810;13.022;2023-04-02T21:39:50;7.83;;;7.03;;
14396;SDS011;50653;47.810;13.022;2023-04-02T21:42:18;7.40;;;6.90;;
14396;SDS011;50653;47.810;13.022;2023-04-02T21:44:45;7.07;;;6.50;;
14396;SDS011;50653;47.810;13.022;2023-04-02T21:47:11;6.70;;;6.30;;
14396;SDS011;50653;47.810;13.022;2023-04-02T21:49:40;7.30;;;6.70;;
14396;SDS011;50653;47.810;13.022;2023-04-02T21:52:10;7.77;;;7.13;;
14396;SDS011;50653;47.810;13.022;2023-04-02T21:54:38;7.43;;;6.83;;
14396;SDS011;50653;47.810;13.022;2023-04-02T21:57:04;6.57;;;6.17;;
14396;SDS011;50653;47.810;13.022;2023-04-02T21:59:35;7.40;;;6.97;;
14396;SDS011;50653;47.810;13.022;2023-04-02T22:02:04;8.57;;;7.87;;
14396;SDS011;50653;47.810;13.022;2023-04-02T22:04:31;8.23;;;7.43;;
14396;SDS011;50653;47.810;13.022;2023-04-02T22:06:57;8.03;;;7.43;;
14396;SDS011;50653;47.810;13.022;2023-04-02T22:09:26;7.77;;;7.17;;
14396;SDS011;50653;47.810;13.022;2023-04-02T22:11:55;8.63;;;7.90;;
14396;SDS011;50653;47.810;13.022;2023-04-02T22:14:25;6.93;;;6.30;;
14396;SDS011;50653;47.810;13.022;2023-04-02T22:16:54;9.50;;;8.60;;
14396;SDS011;50653;47.810;13.022;2023-04-02T22:19:22;8.50;;;7.83;;
14396;SDS011;50653;47.810;13.022;2023-04-02T22:21:49;9.07;;;8.40;;
14396;SDS011;50653;47.810;13.022;2023-04-02T22:24:16;9.23;;;8.47;;
14396;SDS011;50653;47.810;13.022;2023-04-02T22:26:51;8.70;;;7.87;;
14396;SDS011;50653;47.810;13.022;2023-04-02T22:29:17;9.60;;;8.80;;
14396;SDS011;50653;47.810;13.022;2023-04-02T22:31:43;9.00;;;8.30;;
14396;SDS011;50653;47.810;13.022;2023-04-02T22:34:10;9.80;;;9.00;;
14396;SDS011;50653;47.810;13.022;2023-04-02T22:36:36;9.00;;;8.17;;
14396;SDS011;50653;47.810;13.022;2023-04-02T22:39:03;10.03;;;9.07;;
14396;SDS011;50653;47.810;13.022;2023-04-02T22:41:30;9.60;;;8.70;;
14396;SDS011;50653;47.810;13.022;2023-04-02T22:43:58;9.93;;;9.10;;
14396;SDS011;50653;47.810;13.022;2023-04-02T22:46:25;8.53;;;7.83;;
14396;SDS011;50653;47.810;13.022;2023-04-02T22:48:52;10.60;;;8.53;;